Time;durP1;ratioP1;P1;durP2;ratioP2;P2;SDS_P1;SDS_P2;PMS_P1;PMS_P2;Temp;Humidity;BMP_temperature;BMP_pressure;BME280_temperature;BME280_humidity;BME280_pressure;Samples;Min_cycle;Max_cycle;Signal;HPM_P1;HPM_P2
2021/08/03 00:00:42;;;;;;;0.80;0.70;;;;;;;13.53;89.99;100843.19;5074663;28;20475;-77
2021/08/03 00:03:10;;;;;;;1.57;0.63;;;;;;;13.49;89.41;100852.28;5074500;28;20453;-77
2021/08/03 00:05:39;;;;;;;0.80;0.77;;;;;;;13.46;89.34;100844.75;5074019;28;20445;-77
2021/08/03 00:08:11;;;;;;;1.33;0.67;;;;;;;13.49;89.43;100846.84;5074421;28;20437;-76
2021/08/03 00:10:38;;;;;;;1.77;1.00;;;;;;;13.43;91.04;100848.91;5074257;28;20472;-76
2021/08/03 00:13:05;;;;;;;1.10;0.80;;;;;;;13.41;92.03;100847.59;5074329;28;20437;-77
2021/08/03 00:15:31;;;;;;;1.03;0.73;;;;;;;13.48;92.18;100845.25;5074142;28;20491;-76
2021/08/03 00:17:58;;;;;;;1.10;0.70;;;;;;;13.44;92.22;100841.53;5074328;28;20453;-77
2021/08/03 00:20:26;;;;;;;0.83;0.50;;;;;;;13.41;92.44;100850.31;5073889;28;20476;-77
2021/08/03 00:22:56;;;;;;;0.70;0.50;;;;;;;13.34;92.53;100854.31;5074454;28;20449;-76
2021/08/03 00:25:26;;;;;;;1.03;0.73;;;;;;;13.28;92.76;100852.84;5073809;28;20463;-77
2021/08/03 00:27:53;;;;;;;1.27;0.73;;;;;;;13.35;92.21;100855.91;5074165;28;20510;-77
2021/08/03 00:30:19;;;;;;;1.43;0.87;;;;;;;13.29;90.65;100853.66;5073839;28;20469;-77
2021/08/03 00:32:48;;;;;;;0.70;0.70;;;;;;;13.14;89.60;100849.34;5074326;28;20793;-73
2021/08/03 00:35:14;;;;;;;0.93;0.60;;;;;;;13.12;90.12;100846.97;5073780;28;20476;-76
2021/08/03 00:37:40;;;;;;;0.70;0.60;;;;;;;13.04;90.98;100855.06;5073793;28;20437;-76
2021/08/03 00:40:10;;;;;;;0.70;0.40;;;;;;;12.92;90.96;100852.09;5073497;28;20488;-74
2021/08/03 00:42:38;;;;;;;2.70;0.97;;;;;;;12.91;91.10;100850.50;5073688;28;20453;-74
2021/08/03 00:45:05;;;;;;;2.73;0.67;;;;;;;12.93;91.81;100851.81;5073549;28;20449;-75
2021/08/03 00:47:32;;;;;;;1.60;0.80;;;;;;;12.99;92.53;100856.00;5072637;28;20855;-75
2021/08/03 00:49:59;;;;;;;0.50;0.43;;;;;;;13.06;93.21;100853.66;5079962;28;20472;-75
2021/08/03 00:52:28;;;;;;;1.00;0.80;;;;;;;13.00;93.75;100849.44;5073522;28;20473;-75
2021/08/03 00:54:54;;;;;;;1.80;1.10;;;;;;;13.00;93.58;100843.19;5073423;28;20499;-75
2021/08/03 00:57:21;;;;;;;1.23;0.63;;;;;;;12.94;94.04;100853.41;5073445;28;20448;-74
2021/08/03 00:59:48;;;;;;;1.77;1.13;;;;;;;12.93;93.78;100849.09;5073020;28;20880;-74
2021/08/03 01:02:15;;;;;;;0.60;0.60;;;;;;;12.97;93.71;100849.25;5073335;28;20473;-74
2021/08/03 01:04:41;;;;;;;1.43;0.73;;;;;;;12.95;94.07;100848.78;5072965;28;20859;-74
2021/08/03 01:07:21;;;;;;;0.60;0.60;;;;;;;12.97;93.85;100855.53;5073276;28;20444;-74
2021/08/03 01:09:56;;;;;;;2.50;0.70;;;;;;;12.87;94.15;100853.84;5073190;28;20453;-74
2021/08/03 01:12:33;;;;;;;1.00;0.63;;;;;;;12.95;94.03;100851.50;5073327;28;20421;-74
2021/08/03 01:15:09;;;;;;;0.70;0.60;;;;;;;12.92;94.01;100852.09;5072942;28;20898;-74
2021/08/03 01:17:41;;;;;;;0.50;0.40;;;;;;;12.86;94.00;100848.72;5072912;28;20933;-74
2021/08/03 01:20:17;;;;;;;1.07;0.70;;;;;;;12.95;93.66;100851.50;5072870;28;20930;-75
2021/08/03 01:23:19;;;;;;;0.70;0.63;;;;;;;12.82;93.54;100845.00;5073276;28;20425;-75
2021/08/03 01:25:59;;;;;;;0.60;0.60;;;;;;;12.75;91.69;100853.59;5073152;28;20440;-75
2021/08/03 01:28:28;;;;;;;0.80;0.70;;;;;;;12.68;91.01;100853.22;5073051;28;20430;-75
2021/08/03 01:31:00;;;;;;;1.90;0.80;;;;;;;12.63;89.67;100862.31;5073121;28;20441;-75
2021/08/03 01:33:28;;;;;;;0.50;0.40;;;;;;;12.50;90.45;100867.78;5073157;28;20437;-75
2021/08/03 01:35:58;;;;;;;1.60;0.97;;;;;;;12.50;91.53;100860.44;5073003;28;20434;-70
2021/08/03 01:38:28;;;;;;;4.00;0.60;;;;;;;12.51;92.70;100863.94;5072872;28;20437;-74
2021/08/03 01:41:00;;;;;;;5.50;0.70;;;;;;;12.56;92.31;100864.63;5073074;28;20437;-74
2021/08/03 01:43:28;;;;;;;0.50;0.40;;;;;;;12.54;93.94;100874.22;5072636;28;20859;-74
2021/08/03 01:45:56;;;;;;;0.93;0.70;;;;;;;12.64;92.86;100876.69;5072682;28;20947;-74
2021/08/03 01:48:24;;;;;;;1.53;0.63;;;;;;;12.68;93.59;100864.09;5072889;28;20441;-74
2021/08/03 01:50:53;;;;;;;0.50;0.40;;;;;;;12.72;93.64;100865.09;5072950;28;20437;-75
2021/08/03 01:53:21;;;;;;;0.97;0.60;;;;;;;12.72;93.55;100869.72;5072890;28;20492;-74
2021/08/03 01:55:48;;;;;;;8.47;0.83;;;;;;;12.69;94.14;100870.34;5072830;28;20437;-74
2021/08/03 01:58:15;;;;;;;0.60;0.57;;;;;;;12.56;94.67;100871.97;5072768;28;20441;-74
2021/08/03 02:00:44;;;;;;;1.53;1.00;;;;;;;12.60;94.59;100867.53;5076025;28;20481;-74
2021/08/03 02:03:11;;;;;;;0.83;0.70;;;;;;;12.65;94.37;100863.91;5076726;28;20441;-74
2021/08/03 02:05:38;;;;;;;1.67;1.07;;;;;;;12.63;94.33;100875.88;5076315;28;20939;-74
2021/08/03 02:08:07;;;;;;;0.70;0.70;;;;;;;12.59;94.34;100863.22;5076586;28;20452;-74
2021/08/03 02:10:34;;;;;;;0.60;0.50;;;;;;;12.64;93.90;100868.53;5076419;28;20461;-74
2021/08/03 02:13:01;;;;;;;1.33;0.90;;;;;;;12.71;93.90;100868.94;5076492;28;20437;-74
2021/08/03 02:15:28;;;;;;;1.07;0.50;;;;;;;12.70;94.01;100866.50;5076408;28;20448;-74
2021/08/03 02:17:55;;;;;;;1.33;0.93;;;;;;;12.68;93.80;100868.72;5076385;28;20513;-75
2021/08/03 02:20:22;;;;;;;0.83;0.70;;;;;;;12.56;94.28;100874.69;5077363;28;20541;-74
2021/08/03 02:22:49;;;;;;;0.50;0.40;;;;;;;12.48;92.42;100870.00;5076043;28;21019;-74
2021/08/03 02:25:16;;;;;;;9.50;1.00;;;;;;;12.27;91.22;100873.19;5076261;28;20471;-74
2021/08/03 02:27:42;;;;;;;0.70;0.50;;;;;;;12.15;92.62;100877.53;5076232;28;20444;-75
2021/08/03 02:30:11;;;;;;;1.07;0.60;;;;;;;12.06;92.52;100872.00;5076097;28;20457;-75
2021/08/03 02:32:45;;;;;;;0.93;0.50;;;;;;;12.16;92.06;100884.56;5076142;28;20445;-74
2021/08/03 02:35:16;;;;;;;0.90;0.50;;;;;;;12.07;92.63;100876.31;5076090;28;20444;-74
2021/08/03 02:37:48;;;;;;;1.00;0.60;;;;;;;12.13;92.36;100877.84;5075790;28;20588;-74
2021/08/03 02:40:14;;;;;;;0.60;0.50;;;;;;;11.97;92.08;100882.78;5075851;28;20507;-74
2021/08/03 02:42:41;;;;;;;0.77;0.40;;;;;;;12.03;93.95;100880.75;5075978;28;20467;-75
2021/08/03 02:45:10;;;;;;;0.50;0.50;;;;;;;12.17;94.44;100881.53;5082482;28;20456;-74
2021/08/03 02:47:44;;;;;;;1.70;0.80;;;;;;;12.09;95.45;100880.34;5075839;28;20441;-74
2021/08/03 02:50:13;;;;;;;0.80;0.60;;;;;;;12.15;94.96;100880.25;5075356;28;20507;-74
2021/08/03 02:52:43;;;;;;;0.60;0.47;;;;;;;12.26;94.85;100877.00;5075743;28;20441;-74
2021/08/03 02:55:13;;;;;;;1.33;0.93;;;;;;;12.28;94.77;100877.50;5075748;28;20442;-74
2021/08/03 02:57:43;;;;;;;0.60;0.50;;;;;;;12.36;94.71;100884.94;5075640;28;20837;-74
2021/08/03 03:00:12;;;;;;;0.60;0.50;;;;;;;12.34;94.94;100884.41;5075567;28;20497;-74
2021/08/03 03:02:43;;;;;;;1.47;0.80;;;;;;;12.37;95.20;100880.28;5075241;28;20984;-74
2021/08/03 03:05:15;;;;;;;1.00;0.90;;;;;;;12.41;95.55;100881.28;5075599;28;20418;-74
2021/08/03 03:07:44;;;;;;;0.73;0.50;;;;;;;12.47;95.46;100877.34;5075209;28;20803;-74
2021/08/03 03:10:16;;;;;;;0.57;0.50;;;;;;;12.49;95.02;100886.00;5075191;28;20453;-74
2021/08/03 03:12:50;;;;;;;0.90;0.60;;;;;;;12.53;95.42;100888.94;5074937;28;20426;-75
2021/08/03 03:15:19;;;;;;;0.97;0.83;;;;;;;12.63;94.99;100883.25;5075414;28;20436;-75
2021/08/03 03:17:46;;;;;;;0.70;0.70;;;;;;;12.56;92.62;100888.28;5075343;28;20441;-75
2021/08/03 03:20:17;;;;;;;1.80;0.73;;;;;;;12.45;93.18;100893.16;5074870;28;20481;-75
2021/08/03 03:22:45;;;;;;;6.60;1.03;;;;;;;12.40;93.40;100897.91;5075252;28;20430;-75
2021/08/03 03:25:15;;;;;;;1.17;0.73;;;;;;;12.49;92.66;100893.34;5074886;28;20441;-75
2021/08/03 03:27:44;;;;;;;0.60;0.57;;;;;;;12.49;93.42;100890.66;5075124;28;20420;-75
2021/08/03 03:30:14;;;;;;;0.90;0.70;;;;;;;12.47;92.92;100885.50;5074746;28;21001;-74
2021/08/03 03:32:41;;;;;;;0.80;0.50;;;;;;;12.49;93.48;100896.88;5074992;28;20437;-75
2021/08/03 03:35:10;;;;;;;1.00;0.70;;;;;;;12.51;96.01;100894.66;5074973;28;20444;-74
2021/08/03 03:37:41;;;;;;;1.53;0.60;;;;;;;12.71;95.43;100901.53;5074693;28;20438;-74
2021/08/03 03:40:10;;;;;;;1.10;1.00;;;;;;;12.78;95.69;100896.47;5074797;28;20485;-74
2021/08/03 03:42:37;;;;;;;2.43;0.60;;;;;;;12.93;95.65;100891.78;5074787;28;20449;-74
2021/08/03 03:45:05;;;;;;;2.40;1.13;;;;;;;13.01;95.54;100899.19;5074790;28;20445;-74
2021/08/03 03:47:34;;;;;;;1.03;0.80;;;;;;;13.02;96.32;100901.63;5074720;28;20433;-74
2021/08/03 03:50:05;;;;;;;0.50;0.40;;;;;;;13.06;96.64;100890.94;5074637;28;20453;-74
2021/08/03 03:52:39;;;;;;;0.57;0.47;;;;;;;13.10;96.52;100902.75;5074397;28;20421;-74
2021/08/03 03:55:10;;;;;;;2.03;0.80;;;;;;;13.14;96.64;100909.19;5074642;28;20479;-74
2021/08/03 03:57:38;;;;;;;0.67;0.50;;;;;;;13.23;96.09;100906.56;5074551;28;20480;-74
2021/08/03 04:00:06;;;;;;;0.60;0.57;;;;;;;13.25;96.19;100907.88;5074354;28;20493;-74
2021/08/03 04:02:34;;;;;;;0.80;0.67;;;;;;;13.25;97.03;100910.59;5074042;28;20461;-74
2021/08/03 04:05:02;;;;;;;1.80;1.30;;;;;;;13.30;96.81;100913.19;5074424;28;20449;-74
2021/08/03 04:07:30;;;;;;;0.90;0.80;;;;;;;13.42;97.08;100919.97;5074330;28;20548;-74
2021/08/03 04:10:05;;;;;;;0.40;0.40;;;;;;;13.56;96.35;100913.31;5074287;28;20486;-74
2021/08/03 04:12:32;;;;;;;1.83;0.70;;;;;;;13.54;96.53;100926.41;5073913;28;20949;-74
2021/08/03 04:14:59;;;;;;;0.70;0.60;;;;;;;13.57;94.49;100925.81;5073868;28;20441;-74
2021/08/03 04:17:25;;;;;;;1.53;0.50;;;;;;;13.53;94.14;100927.53;5074084;28;20444;-74
2021/08/03 04:19:52;;;;;;;2.20;0.83;;;;;;;13.55;93.14;100922.59;5073576;28;20495;-74
2021/08/03 04:22:18;;;;;;;0.70;0.50;;;;;;;13.56;93.80;100926.13;5073970;28;20448;-74
2021/08/03 04:24:45;;;;;;;0.97;0.70;;;;;;;13.50;93.91;100928.19;5073677;28;20835;-74
2021/08/03 04:27:11;;;;;;;0.50;0.43;;;;;;;13.50;94.71;100927.38;5073913;28;20781;-74
2021/08/03 04:29:39;;;;;;;0.93;0.50;;;;;;;13.70;94.89;100929.56;5073855;28;20460;-74
2021/08/03 04:32:06;;;;;;;1.43;1.10;;;;;;;13.77;95.51;100927.19;5073546;28;20957;-74
2021/08/03 04:34:33;;;;;;;1.57;1.37;;;;;;;13.93;95.24;100930.28;5073802;28;20441;-73
2021/08/03 04:37:00;;;;;;;1.60;0.90;;;;;;;13.94;95.95;100926.44;5073394;28;20449;-74
2021/08/03 04:39:27;;;;;;;0.50;0.50;;;;;;;13.97;96.34;100925.03;5080232;28;20438;-73
2021/08/03 04:41:53;;;;;;;4.33;0.90;;;;;;;14.08;96.12;100937.25;5073766;28;20442;-73
2021/08/03 04:44:19;;;;;;;11.03;1.10;;;;;;;14.22;95.39;100932.47;5073359;28;20441;-73
2021/08/03 04:46:47;;;;;;;3.53;0.63;;;;;;;14.30;95.54;100937.16;5073583;28;20444;-74
2021/08/03 04:49:14;;;;;;;1.43;1.13;;;;;;;14.41;95.56;100940.34;5073572;28;20587;-74
2021/08/03 04:51:40;;;;;;;1.37;0.67;;;;;;;14.51;95.78;100940.06;5073518;28;20445;-75
2021/08/03 04:54:07;;;;;;;1.57;0.80;;;;;;;14.57;95.78;100943.47;5073238;28;20962;-73
2021/08/03 04:56:34;;;;;;;1.77;0.90;;;;;;;14.64;95.94;100941.06;5073518;28;20444;-75
2021/08/03 04:59:00;;;;;;;1.10;0.67;;;;;;;14.75;95.14;100938.84;5073054;28;20993;-74
2021/08/03 05:01:26;;;;;;;0.73;0.73;;;;;;;14.74;95.15;100939.94;5073354;28;20484;-75
2021/08/03 05:03:54;;;;;;;0.70;0.60;;;;;;;14.86;94.94;100945.56;5073083;28;20939;-73
2021/08/03 05:06:21;;;;;;;9.30;1.13;;;;;;;14.93;94.35;100945.91;5073350;28;20445;-73
2021/08/03 05:08:47;;;;;;;0.57;0.50;;;;;;;14.95;93.91;100938.19;5073243;28;20469;-73
2021/08/03 05:11:13;;;;;;;10.57;0.87;;;;;;;15.03;92.71;100945.56;5073340;28;20444;-73
2021/08/03 05:13:40;;;;;;;1.17;0.77;;;;;;;15.06;90.98;100934.00;5073029;28;20938;-73
2021/08/03 05:16:06;;;;;;;9.50;1.07;;;;;;;15.13;90.48;100938.97;5073557;28;20445;-73
2021/08/03 05:18:33;;;;;;;4.87;2.93;;;;;;;15.08;89.60;100934.47;5072911;28;20823;-73
2021/08/03 05:21:01;;;;;;;2.20;1.03;;;;;;;15.08;89.92;100933.69;5073122;28;20476;-70
2021/08/03 05:23:27;;;;;;;1.87;1.27;;;;;;;15.11;89.23;100933.03;5073215;28;20445;-70
2021/08/03 05:25:54;;;;;;;1.83;0.50;;;;;;;15.23;89.41;100935.09;5072947;28;20977;-69
2021/08/03 05:28:20;;;;;;;1.37;0.93;;;;;;;15.33;90.84;100932.03;5072761;28;20814;-72
2021/08/03 05:30:47;;;;;;;0.60;0.50;;;;;;;15.39;91.36;100941.66;5073042;28;20444;-73
2021/08/03 05:33:14;;;;;;;0.70;0.63;;;;;;;15.47;92.20;100940.03;5072799;28;20818;-73
2021/08/03 05:35:41;;;;;;;1.00;0.80;;;;;;;15.52;92.61;100937.94;5076602;28;20438;-76
2021/08/03 05:38:09;;;;;;;1.33;0.97;;;;;;;15.64;92.96;100940.03;5077074;28;20931;-72
2021/08/03 05:40:36;;;;;;;1.10;0.50;;;;;;;15.73;91.83;100940.00;5076880;28;21009;-74
2021/08/03 05:43:02;;;;;;;1.83;0.93;;;;;;;15.82;90.60;100936.09;5077131;28;20444;-77
2021/08/03 05:45:29;;;;;;;1.27;1.07;;;;;;;15.91;90.58;100938.78;5077400;28;20464;-76
2021/08/03 05:47:56;;;;;;;0.70;0.60;;;;;;;15.98;88.76;100952.75;5076804;28;20942;-76
2021/08/03 05:50:22;;;;;;;1.03;0.60;;;;;;;16.01;88.05;100943.09;5076921;28;20457;-76
2021/08/03 05:52:48;;;;;;;0.80;0.70;;;;;;;16.04;88.31;100951.44;5076924;28;20463;-76
2021/08/03 05:55:16;;;;;;;1.23;1.00;;;;;;;16.10;88.07;100950.09;5076590;28;20445;-76
2021/08/03 05:57:42;;;;;;;0.93;0.70;;;;;;;16.24;87.90;100957.28;5076814;28;20441;-76
2021/08/03 06:00:10;;;;;;;1.37;1.03;;;;;;;16.38;87.15;100949.66;5076679;28;20481;-76
2021/08/03 06:02:36;;;;;;;0.97;0.50;;;;;;;16.53;87.34;100951.00;5076707;28;20495;-76
2021/08/03 06:05:03;;;;;;;5.30;0.97;;;;;;;16.61;85.34;100958.34;5076396;28;20818;-76
2021/08/03 06:07:30;;;;;;;1.30;0.90;;;;;;;16.71;85.69;100957.16;5076630;28;20449;-76
2021/08/03 06:09:58;;;;;;;0.73;0.63;;;;;;;16.82;84.45;100966.56;5076528;28;20468;-76
2021/08/03 06:12:26;;;;;;;1.60;0.90;;;;;;;16.90;84.34;100960.22;5076546;28;20445;-76
2021/08/03 06:14:55;;;;;;;0.60;0.60;;;;;;;17.00;84.38;100961.75;5076460;28;20437;-76
2021/08/03 06:17:34;;;;;;;0.90;0.70;;;;;;;17.15;84.08;100969.38;5076200;28;20867;-76
2021/08/03 06:20:00;;;;;;;2.60;0.80;;;;;;;17.20;83.12;100969.16;5075898;28;20501;-76
2021/08/03 06:22:27;;;;;;;1.00;0.60;;;;;;;17.30;82.70;100966.00;5076088;28;21008;-76
2021/08/03 06:24:55;;;;;;;0.60;0.60;;;;;;;17.35;82.90;100971.28;5076253;28;20452;-76
2021/08/03 06:27:22;;;;;;;0.60;0.60;;;;;;;17.45;81.41;100972.00;5075966;28;20957;-76
2021/08/03 06:29:50;;;;;;;1.20;0.77;;;;;;;17.50;82.07;100961.63;5076117;28;20469;-76
2021/08/03 06:32:16;;;;;;;1.90;0.93;;;;;;;17.57;82.22;100967.31;5076167;28;20436;-76
2021/08/03 06:34:45;;;;;;;1.33;0.90;;;;;;;17.66;82.69;100969.97;5076433;28;20985;-76
2021/08/03 06:37:12;;;;;;;1.57;1.00;;;;;;;17.67;81.17;100965.31;5081571;28;20441;-75
2021/08/03 06:39:39;;;;;;;1.13;0.70;;;;;;;17.65;81.23;100969.16;5076027;28;20487;-75
2021/08/03 06:42:13;;;;;;;1.20;0.60;;;;;;;17.66;81.29;100964.50;5075912;28;20487;-75
2021/08/03 06:44:45;;;;;;;1.20;0.90;;;;;;;17.74;81.07;100963.63;5076004;28;20422;-75
2021/08/03 06:47:16;;;;;;;0.73;0.57;;;;;;;17.79;82.16;100960.66;5074614;28;20422;-76
2021/08/03 06:49:44;;;;;;;1.27;0.80;;;;;;;17.82;82.13;100962.72;5075782;28;20465;-76
2021/08/03 06:52:13;;;;;;;1.30;1.13;;;;;;;17.81;81.74;100966.63;5075959;28;20490;-76
2021/08/03 06:54:42;;;;;;;0.93;0.77;;;;;;;17.87;81.18;100961.72;5075761;28;20536;-76
2021/08/03 06:57:12;;;;;;;0.87;0.50;;;;;;;17.89;81.88;100968.47;5075540;28;20494;-76
2021/08/03 06:59:46;;;;;;;1.10;0.80;;;;;;;17.93;81.99;100970.50;5075654;28;20472;-75
2021/08/03 07:02:22;;;;;;;1.50;0.70;;;;;;;18.03;82.07;100965.38;5075644;28;20552;-75
2021/08/03 07:04:56;;;;;;;1.67;1.10;;;;;;;18.08;80.83;100967.09;5075631;28;20422;-75
2021/08/03 07:07:22;;;;;;;0.90;0.50;;;;;;;18.02;80.39;100966.53;5075291;28;20912;-75
2021/08/03 07:09:50;;;;;;;1.00;0.90;;;;;;;17.98;81.99;100971.09;5075415;28;20483;-75
2021/08/03 07:12:16;;;;;;;4.00;1.03;;;;;;;18.09;82.04;100974.97;5075528;28;20444;-75
2021/08/03 07:14:43;;;;;;;1.00;0.90;;;;;;;18.15;81.39;100970.09;5075428;28;20449;-75
2021/08/03 07:17:14;;;;;;;0.60;0.50;;;;;;;18.24;80.68;100973.50;5075370;28;20441;-75
2021/08/03 07:19:41;;;;;;;0.93;0.70;;;;;;;18.27;79.45;100972.00;5074905;28;20476;-75
2021/08/03 07:22:10;;;;;;;1.40;0.70;;;;;;;18.29;80.71;100976.00;5074885;28;20993;-75
2021/08/03 07:24:38;;;;;;;0.80;0.70;;;;;;;18.30;79.69;100971.31;5075166;28;20491;-75
2021/08/03 07:27:05;;;;;;;1.33;0.80;;;;;;;18.36;80.76;100969.94;5075181;28;20453;-76
2021/08/03 07:29:31;;;;;;;1.00;0.60;;;;;;;18.54;82.01;100971.28;5075238;28;20461;-76
2021/08/03 07:31:58;;;;;;;1.17;0.67;;;;;;;18.65;80.38;100968.88;5075336;28;20444;-74
2021/08/03 07:34:25;;;;;;;0.70;0.53;;;;;;;18.69;79.58;100971.75;5075125;28;20511;-73
2021/08/03 07:36:52;;;;;;;4.63;0.73;;;;;;;18.75;82.29;100968.41;5075010;28;20802;-76
2021/08/03 07:39:20;;;;;;;2.50;0.70;;;;;;;18.71;81.81;100964.78;5076349;28;20481;-79
2021/08/03 07:41:46;;;;;;;0.60;0.60;;;;;;;18.72;79.89;100976.53;5078445;28;20485;-79
2021/08/03 07:44:13;;;;;;;2.10;0.93;;;;;;;18.66;81.25;100968.53;5078865;28;20438;-80
2021/08/03 07:46:39;;;;;;;4.23;0.80;;;;;;;18.82;80.08;100978.81;5071395;28;20437;-78
2021/08/03 07:49:07;;;;;;;0.70;0.53;;;;;;;18.83;79.30;100983.16;5057195;28;20466;-78
2021/08/03 07:51:35;;;;;;;0.57;0.50;;;;;;;18.94;79.10;100978.78;5056586;28;20538;-74
2021/08/03 07:54:01;;;;;;;0.80;0.67;;;;;;;18.85;79.71;100976.16;5070614;28;20453;-78
2021/08/03 07:56:28;;;;;;;0.50;0.40;;;;;;;18.95;79.39;100980.41;5077702;28;20442;-77
2021/08/03 07:58:54;;;;;;;0.97;0.80;;;;;;;18.92;79.27;100975.59;5077172;28;20461;-77
2021/08/03 08:01:21;;;;;;;1.27;0.50;;;;;;;18.90;76.73;100975.94;5077180;28;20485;-77
2021/08/03 08:03:47;;;;;;;1.00;0.70;;;;;;;18.95;78.06;100966.66;5076887;28;20441;-77
2021/08/03 08:06:15;;;;;;;1.17;0.50;;;;;;;19.05;77.33;100974.41;5077552;28;20448;-77
2021/08/03 08:08:43;;;;;;;1.00;0.50;;;;;;;19.10;75.28;100981.59;5076096;28;20485;-77
2021/08/03 08:11:09;;;;;;;0.80;0.50;;;;;;;19.21;77.53;100971.69;5077021;28;20445;-77
2021/08/03 08:13:36;;;;;;;0.90;0.63;;;;;;;19.45;74.88;100976.28;5077476;28;20452;-77
2021/08/03 08:16:03;;;;;;;1.00;0.60;;;;;;;19.51;76.61;100979.56;5077162;28;20456;-77
2021/08/03 08:18:29;;;;;;;1.50;0.70;;;;;;;19.62;74.83;100975.19;5077644;28;20976;-77
2021/08/03 08:20:56;;;;;;;2.57;0.73;;;;;;;19.68;72.90;100971.03;5078842;28;20476;-78
2021/08/03 08:23:23;;;;;;;1.50;0.73;;;;;;;19.83;72.65;100975.75;5078245;28;20449;-78
2021/08/03 08:25:51;;;;;;;1.07;0.57;;;;;;;19.88;73.22;100974.69;5077957;28;20939;-78
2021/08/03 08:28:17;;;;;;;1.00;0.80;;;;;;;19.94;72.48;100972.47;5076931;28;20441;-78
2021/08/03 08:30:47;;;;;;;4.00;0.60;;;;;;;19.96;74.59;100967.41;5076156;28;20441;-77
2021/08/03 08:33:13;;;;;;;0.60;0.50;;;;;;;20.10;75.03;100967.75;5082530;28;20449;-77
2021/08/03 08:35:40;;;;;;;1.50;0.50;;;;;;;20.23;73.00;100969.25;5073881;28;20818;-74
2021/08/03 08:38:07;;;;;;;1.53;0.77;;;;;;;20.23;72.96;100972.00;5073317;28;20442;-75
2021/08/03 08:40:33;;;;;;;1.30;0.70;;;;;;;20.28;71.99;100971.72;5073162;28;20461;-77
2021/08/03 08:43:02;;;;;;;2.63;0.67;;;;;;;20.43;74.20;100970.09;5073869;28;20442;-77
2021/08/03 08:45:30;;;;;;;2.77;0.80;;;;;;;20.28;75.71;100971.72;5064367;28;20540;-78
2021/08/03 08:47:57;;;;;;;0.90;0.80;;;;;;;20.42;72.97;100963.81;5073485;28;20460;-77
2021/08/03 08:50:26;;;;;;;3.43;0.80;;;;;;;20.56;71.45;100968.84;5074377;28;20465;-77
2021/08/03 08:52:55;;;;;;;0.70;0.53;;;;;;;20.62;70.68;100964.66;5076299;28;20482;-77
2021/08/03 08:55:23;;;;;;;0.50;0.30;;;;;;;20.71;69.79;100969.97;5076848;28;20445;-78
2021/08/03 08:57:51;;;;;;;3.03;0.97;;;;;;;20.69;70.93;100964.03;5076200;28;20457;-77
2021/08/03 09:00:20;;;;;;;0.70;0.40;;;;;;;20.70;70.85;100959.31;5076809;28;20504;-77
2021/08/03 09:02:49;;;;;;;1.00;0.70;;;;;;;20.71;70.14;100961.69;5076920;28;20508;-77
2021/08/03 09:05:17;;;;;;;2.10;0.70;;;;;;;20.78;71.23;100961.06;5077208;28;20880;-77
2021/08/03 09:07:48;;;;;;;1.57;0.80;;;;;;;20.80;71.48;100965.03;5077731;28;20456;-77
2021/08/03 09:10:32;;;;;;;0.93;0.80;;;;;;;20.82;70.68;100962.72;5074742;28;20538;-75
2021/08/03 09:13:00;;;;;;;1.07;0.60;;;;;;;20.61;69.62;100965.81;5073143;28;20891;-76
2021/08/03 09:15:28;;;;;;;0.63;0.40;;;;;;;20.48;70.46;100961.59;5074141;28;20452;-77
2021/08/03 09:18:09;;;;;;;0.53;0.50;;;;;;;20.28;71.72;100965.44;5074990;28;20452;-77
2021/08/03 09:20:37;;;;;;;1.23;0.67;;;;;;;20.50;70.65;100964.81;5074189;28;20473;-77
2021/08/03 09:23:03;;;;;;;0.60;0.40;;;;;;;20.74;69.60;100968.44;5075202;28;20480;-77
2021/08/03 09:25:30;;;;;;;1.47;0.53;;;;;;;20.72;67.07;100959.72;5075195;28;20860;-77
2021/08/03 09:28:01;;;;;;;1.27;0.50;;;;;;;20.75;66.11;100959.81;5074724;28;20445;-77
2021/08/03 09:30:31;;;;;;;0.83;0.50;;;;;;;20.81;67.96;100961.16;5074950;28;20461;-77
2021/08/03 09:32:58;;;;;;;1.43;0.60;;;;;;;20.81;71.20;100958.41;5074663;28;20434;-76
2021/08/03 09:35:25;;;;;;;1.10;0.50;;;;;;;20.76;68.23;100961.44;5078747;28;20441;-77
2021/08/03 09:37:53;;;;;;;0.60;0.40;;;;;;;20.70;67.50;100959.31;5077029;28;20433;-74
2021/08/03 09:40:21;;;;;;;0.70;0.40;;;;;;;20.53;68.86;100955.00;5073761;28;20457;-77
2021/08/03 09:43:02;;;;;;;0.80;0.40;;;;;;;20.55;69.65;100956.25;5073420;28;20488;-77
2021/08/03 09:45:32;;;;;;;0.67;0.40;;;;;;;20.51;68.93;100960.09;5073846;28;20425;-77
2021/08/03 09:48:13;;;;;;;2.63;0.40;;;;;;;20.53;67.89;100952.25;5073810;28;20441;-77
2021/08/03 09:50:54;;;;;;;0.60;0.40;;;;;;;20.56;66.35;100946.03;5073333;28;20877;-79
2021/08/03 09:53:41;;;;;;;0.60;0.50;;;;;;;20.50;65.89;100961.25;5074526;28;20437;-77
2021/08/03 09:56:09;;;;;;;0.70;0.50;;;;;;;20.41;67.16;100962.22;5074274;28;20808;-77
2021/08/03 09:58:49;;;;;;;3.43;0.73;;;;;;;20.49;67.27;100956.88;5076723;28;20492;-77
2021/08/03 10:01:25;;;;;;;0.70;0.50;;;;;;;20.71;67.32;100953.44;5075521;28;20433;-77
2021/08/03 10:03:53;;;;;;;1.10;0.60;;;;;;;20.97;67.27;100949.25;5077115;28;20961;-78
2021/08/03 10:06:20;;;;;;;3.87;0.67;;;;;;;21.21;66.79;100954.47;5077222;28;20460;-78
2021/08/03 10:08:48;;;;;;;1.33;0.70;;;;;;;21.35;64.51;100954.75;5077233;28;20832;-77
2021/08/03 10:11:16;;;;;;;0.87;0.60;;;;;;;21.46;65.38;100956.91;5077882;28;20445;-79
2021/08/03 10:13:42;;;;;;;0.77;0.60;;;;;;;21.54;63.46;100951.16;5075620;28;20454;-76
2021/08/03 10:16:09;;;;;;;1.03;0.70;;;;;;;21.51;61.62;100945.59;5072929;28;20855;-76
2021/08/03 10:18:40;;;;;;;0.80;0.77;;;;;;;21.43;62.93;100939.16;5074718;28;20946;-77
2021/08/03 10:21:08;;;;;;;0.53;0.43;;;;;;;21.32;61.75;100940.91;5079143;28;20483;-78
2021/08/03 10:23:37;;;;;;;1.30;0.60;;;;;;;21.32;62.78;100946.44;5078615;28;20441;-75
2021/08/03 10:26:11;;;;;;;1.33;0.60;;;;;;;21.38;63.49;100950.47;5075896;28;20815;-72
2021/08/03 10:28:37;;;;;;;0.60;0.40;;;;;;;21.47;63.41;100940.03;5076237;28;20461;-72
2021/08/03 10:31:04;;;;;;;4.20;1.20;;;;;;;21.47;62.19;100937.28;5076250;28;20487;-71
2021/08/03 10:33:44;;;;;;;1.43;0.60;;;;;;;21.56;62.02;100942.50;5084039;28;20502;-75
2021/08/03 10:36:49;;;;;;;2.90;0.80;;;;;;;21.55;61.85;100932.66;5076528;28;20433;-76
2021/08/03 10:39:17;;;;;;;6.47;0.70;;;;;;;21.46;61.38;100940.38;5076469;28;20786;-75
2021/08/03 10:42:12;;;;;;;0.80;0.60;;;;;;;21.26;63.14;100939.59;5076597;28;20527;-79
2021/08/03 10:44:40;;;;;;;1.37;0.60;;;;;;;21.16;61.81;100940.97;5076470;28;20496;-76
2021/08/03 10:47:49;;;;;;;1.87;0.70;;;;;;;21.11;64.41;100933.00;5077194;28;20499;-77
2021/08/03 10:50:29;;;;;;;0.70;0.47;;;;;;;21.05;66.66;100931.72;5040726;28;20550;-78
2021/08/03 10:52:58;;;;;;;1.37;0.80;;;;;;;21.02;65.13;100926.91;5078051;28;20426;-77
2021/08/03 10:55:40;;;;;;;0.80;0.60;;;;;;;21.15;68.59;100925.59;5076876;28;20449;-74
2021/08/03 10:58:31;;;;;;;0.60;0.40;;;;;;;21.23;66.28;100921.81;5076091;28;20449;-75
2021/08/03 11:01:00;;;;;;;1.60;0.80;;;;;;;21.21;63.69;100920.63;5075756;28;20422;-75
2021/08/03 11:03:48;;;;;;;0.70;0.57;;;;;;;21.20;64.94;100917.03;5077043;28;21079;-81
2021/08/03 11:06:38;;;;;;;0.60;0.50;;;;;;;21.25;62.83;100918.69;5071083;28;20445;-75
2021/08/03 11:09:34;;;;;;;0.50;0.50;;;;;;;21.30;63.56;100918.41;5075638;28;20464;-73
2021/08/03 11:12:35;;;;;;;0.60;0.50;;;;;;;21.48;62.47;100922.31;5074795;28;20441;-72
2021/08/03 11:15:35;;;;;;;0.60;0.60;;;;;;;21.75;63.37;100912.16;5075420;28;20468;-72
2021/08/03 11:18:04;;;;;;;0.83;0.50;;;;;;;21.90;60.90;100902.91;5075315;28;20449;-73
2021/08/03 11:21:13;;;;;;;0.90;0.60;;;;;;;22.16;61.67;100899.41;5074814;28;21005;-73
2021/08/03 11:24:11;;;;;;;0.90;0.77;;;;;;;22.33;60.80;100892.53;5075157;28;20468;-73
2021/08/03 11:26:40;;;;;;;0.70;0.60;;;;;;;22.84;59.89;100903.06;5013299;28;20435;-72
2021/08/03 11:29:11;;;;;;;3.60;0.50;;;;;;;23.88;55.41;100904.91;5062065;28;20999;-73
2021/08/03 11:31:55;;;;;;;0.60;0.60;;;;;;;24.04;52.89;100898.28;5074489;28;20421;-72
2021/08/03 11:34:30;;;;;;;1.30;0.60;;;;;;;23.79;53.66;100898.13;5074846;28;20907;-73
2021/08/03 11:37:21;;;;;;;0.90;0.60;;;;;;;23.54;52.58;100895.09;5075023;28;20833;-72